sensor_id;sensor_type;location;lat;lon;timestamp;pressure;altitude;pressure_sealevel;temperature;humidity
64551;BME280;50945;44.472;-123.352;2023-07-31T00:01:53;100589.34;;;27.47;35.25
64551;BME280;50945;44.472;-123.352;2023-07-31T00:04:19;100587.75;;;27.36;35.24
64551;BME280;50945;44.472;-123.352;2023-07-31T00:06:45;100584.38;;;27.34;35.46
64551;BME280;50945;44.472;-123.352;2023-07-31T00:09:12;100586.59;;;27.37;35.41
64551;BME280;50945;44.472;-123.352;2023-07-31T00:11:38;100574.53;;;27.42;35.63
64551;BME280;50945;44.472;-123.352;2023-07-31T00:14:04;100580.66;;;27.44;35.34
64551;BME280;50945;44.472;-123.352;2023-07-31T00:16:30;100588.59;;;27.37;35.25
64551;BME280;50945;44.472;-123.352;2023-07-31T00:18:56;100587.00;;;27.20;35.38
64551;BME280;50945;44.472;-123.352;2023-07-31T00:21:22;100581.78;;;26.98;35.71
64551;BME280;50945;44.472;-123.352;2023-07-31T00:23:49;100585.81;;;26.77;36.08
64551;BME280;50945;44.472;-123.352;2023-07-31T00:26:15;100587.28;;;26.64;36.16
64551;BME280;50945;44.472;-123.352;2023-07-31T00:28:41;100594.28;;;26.61;36.36
64551;BME280;50945;44.472;-123.352;2023-07-31T00:31:07;100600.19;;;26.54;36.15
64551;BME280;50945;44.472;-123.352;2023-07-31T00:33:34;100593.25;;;26.36;36.44
64551;BME280;50945;44.472;-123.352;2023-07-31T00:36:02;100595.25;;;26.21;36.62
64551;BME280;50945;44.472;-123.352;2023-07-31T00:38:28;100596.09;;;26.01;36.93
64551;BME280;50945;44.472;-123.352;2023-07-31T00:40:54;100599.19;;;25.89;36.97
64551;BME280;50945;44.472;-123.352;2023-07-31T00:43:21;100598.31;;;25.83;37.17
64551;BME280;50945;44.472;-123.352;2023-07-31T00:45:47;100594.41;;;25.74;37.27
64551;BME280;50945;44.472;-123.352;2023-07-31T00:48:13;100598.06;;;25.64;37.25
64551;BME280;50945;44.472;-123.352;2023-07-31T00:50:39;100585.19;;;25.58;37.62
64551;BME280;50945;44.472;-123.352;2023-07-31T00:53:06;100594.97;;;25.45;37.78
64551;BME280;50945;44.472;-123.352;2023-07-31T00:55:32;100592.44;;;25.33;38.05
64551;BME280;50945;44.472;-123.352;2023-07-31T00:57:58;100598.84;;;25.23;37.80
64551;BME280;50945;44.472;-123.352;2023-07-31T01:00:25;100597.72;;;25.14;38.29
64551;BME280;50945;44.472;-123.352;2023-07-31T01:02:51;100594.59;;;25.05;38.44
64551;BME280;50945;44.472;-123.352;2023-07-31T01:05:25;100590.69;;;24.96;38.70
64551;BME280;50945;44.472;-123.352;2023-07-31T01:08:13;100592.88;;;24.84;38.99
64551;BME280;50945;44.472;-123.352;2023-07-31T01:10:48;100588.06;;;24.74;39.03
64551;BME280;50945;44.472;-123.352;2023-07-31T01:13:17;100590.28;;;24.67;39.01
64551;BME280;50945;44.472;-123.352;2023-07-31T01:15:44;100591.13;;;24.62;39.27
64551;BME280;50945;44.472;-123.352;2023-07-31T01:18:10;100590.53;;;24.60;39.39
64551;BME280;50945;44.472;-123.352;2023-07-31T01:20:37;100587.75;;;24.55;39.38
64551;BME280;50945;44.472;-123.352;2023-07-31T01:23:43;100584.28;;;24.48;39.84
64551;BME280;50945;44.472;-123.352;2023-07-31T01:26:19;100584.56;;;24.41;39.58
64551;BME280;50945;44.472;-123.352;2023-07-31T01:29:03;100586.72;;;24.29;39.72
64551;BME280;50945;44.472;-123.352;2023-07-31T01:31:33;100591.69;;;24.17;39.88
64551;BME280;50945;44.472;-123.352;2023-07-31T01:34:01;100592.44;;;24.07;40.14
64551;BME280;50945;44.472;-123.352;2023-07-31T01:36:28;100591.31;;;24.03;40.12
64551;BME280;50945;44.472;-123.352;2023-07-31T01:39:00;100592.41;;;23.97;40.31
64551;BME280;50945;44.472;-123.352;2023-07-31T01:41:27;100595.16;;;23.91;40.59
64551;BME280;50945;44.472;-123.352;2023-07-31T01:43:53;100596.50;;;23.89;40.66
64551;BME280;50945;44.472;-123.352;2023-07-31T01:46:19;100599.25;;;23.84;40.54
64551;BME280;50945;44.472;-123.352;2023-07-31T01:48:45;100597.78;;;23.76;40.75
64551;BME280;50945;44.472;-123.352;2023-07-31T01:51:11;100601.06;;;23.68;40.86
64551;BME280;50945;44.472;-123.352;2023-07-31T01:53:37;100606.81;;;23.56;41.42
64551;BME280;50945;44.472;-123.352;2023-07-31T01:56:03;100610.41;;;23.51;41.02
64551;BME280;50945;44.472;-123.352;2023-07-31T01:58:29;100613.41;;;23.45;41.17
64551;BME280;50945;44.472;-123.352;2023-07-31T02:00:55;100622.00;;;23.38;41.25
64551;BME280;50945;44.472;-123.352;2023-07-31T02:03:21;100617.16;;;23.28;41.83
64551;BME280;50945;44.472;-123.352;2023-07-31T02:05:48;100620.19;;;23.27;41.35
64551;BME280;50945;44.472;-123.352;2023-07-31T02:08:15;100619.56;;;23.20;41.50
64551;BME280;50945;44.472;-123.352;2023-07-31T02:10:42;100617.78;;;23.08;41.61
64551;BME280;50945;44.472;-123.352;2023-07-31T02:13:08;100626.25;;;22.96;41.76
64551;BME280;50945;44.472;-123.352;2023-07-31T02:15:36;100617.19;;;22.84;41.86
64551;BME280;50945;44.472;-123.352;2023-07-31T02:18:02;100626.00;;;22.76;42.15
64551;BME280;50945;44.472;-123.352;2023-07-31T02:20:28;100629.50;;;22.66;42.37
64551;BME280;50945;44.472;-123.352;2023-07-31T02:22:54;100629.63;;;22.54;43.30
64551;BME280;50945;44.472;-123.352;2023-07-31T02:25:20;100626.25;;;22.52;42.56
64551;BME280;50945;44.472;-123.352;2023-07-31T02:27:46;100631.16;;;22.45;43.32
64551;BME280;50945;44.472;-123.352;2023-07-31T02:30:12;100637.59;;;22.46;42.60
64551;BME280;50945;44.472;-123.352;2023-07-31T02:32:38;100634.50;;;22.42;42.67
64551;BME280;50945;44.472;-123.352;2023-07-31T02:35:05;100646.06;;;22.34;42.76
64551;BME280;50945;44.472;-123.352;2023-07-31T02:37:31;100648.75;;;22.29;43.06
64551;BME280;50945;44.472;-123.352;2023-07-31T02:39:57;100653.38;;;22.23;43.04
64551;BME280;50945;44.472;-123.352;2023-07-31T02:42:23;100646.56;;;22.14;43.25
64551;BME280;50945;44.472;-123.352;2023-07-31T02:44:49;100647.81;;;22.06;43.39
64551;BME280;50945;44.472;-123.352;2023-07-31T02:47:22;100653.84;;;21.98;43.57
64551;BME280;50945;44.472;-123.352;2023-07-31T02:49:48;100653.41;;;21.89;43.67
64551;BME280;50945;44.472;-123.352;2023-07-31T02:52:14;100648.84;;;21.83;43.60
64551;BME280;50945;44.472;-123.352;2023-07-31T02:54:40;100656.50;;;21.76;43.81
64551;BME280;50945;44.472;-123.352;2023-07-31T02:57:06;100661.53;;;21.62;44.87
64551;BME280;50945;44.472;-123.352;2023-07-31T02:59:32;100656.66;;;21.52;44.12
64551;BME280;50945;44.472;-123.352;2023-07-31T03:01:58;100657.03;;;21.44;44.30
64551;BME280;50945;44.472;-123.352;2023-07-31T03:04:25;100671.09;;;21.37;44.30
64551;BME280;50945;44.472;-123.352;2023-07-31T03:06:50;100662.69;;;21.20;44.53
64551;BME280;50945;44.472;-123.352;2023-07-31T03:09:16;100665.38;;;21.15;44.30
64551;BME280;50945;44.472;-123.352;2023-07-31T03:11:43;100666.63;;;21.07;44.30
64551;BME280;50945;44.472;-123.352;2023-07-31T03:14:09;100665.31;;;20.98;44.51
64551;BME280;50945;44.472;-123.352;2023-07-31T03:16:34;100671.03;;;20.80;44.69
64551;BME280;50945;44.472;-123.352;2023-07-31T03:19:01;100668.38;;;20.73;44.71
64551;BME280;50945;44.472;-123.352;2023-07-31T03:21:27;100663.22;;;20.65;44.46
64551;BME280;50945;44.472;-123.352;2023-07-31T03:23:53;100666.56;;;20.55;44.79
64551;BME280;50945;44.472;-123.352;2023-07-31T03:26:19;100668.88;;;20.46;44.61
64551;BME280;50945;44.472;-123.352;2023-07-31T03:28:45;100675.88;;;20.37;44.65
64551;BME280;50945;44.472;-123.352;2023-07-31T03:31:11;100679.88;;;20.29;44.71
64551;BME280;50945;44.472;-123.352;2023-07-31T03:33:38;100679.41;;;20.21;45.10
64551;BME280;50945;44.472;-123.352;2023-07-31T03:36:04;100673.38;;;20.12;44.87
64551;BME280;50945;44.472;-123.352;2023-07-31T03:38:31;100674.81;;;20.03;45.08
64551;BME280;50945;44.472;-123.352;2023-07-31T03:40:57;100675.16;;;19.94;45.25
64551;BME280;50945;44.472;-123.352;2023-07-31T03:43:24;100667.19;;;19.86;45.36
64551;BME280;50945;44.472;-123.352;2023-07-31T03:45:51;100672.00;;;19.79;45.52
64551;BME280;50945;44.472;-123.352;2023-07-31T03:48:16;100671.56;;;19.64;45.69
64551;BME280;50945;44.472;-123.352;2023-07-31T03:50:43;100664.44;;;19.56;45.59
64551;BME280;50945;44.472;-123.352;2023-07-31T03:53:09;100670.94;;;19.50;45.76
64551;BME280;50945;44.472;-123.352;2023-07-31T03:55:35;100668.97;;;19.38;46.78
64551;BME280;50945;44.472;-123.352;2023-07-31T03:58:01;100668.59;;;19.35;46.26
64551;BME280;50945;44.472;-123.352;2023-07-31T04:00:27;100667.63;;;19.29;46.42
64551;BME280;50945;44.472;-123.352;2023-07-31T04:02:53;100672.00;;;19.18;47.28
64551;BME280;50945;44.472;-123.352;2023-07-31T04:05:19;100684.19;;;19.17;46.69
64551;BME280;50945;44.472;-123.352;2023-07-31T04:07:45;100676.78;;;19.11;46.97
64551;BME280;50945;44.472;-123.352;2023-07-31T04:10:11;100678.56;;;19.06;47.20
64551;BME280;50945;44.472;-123.352;2023-07-31T04:12:38;100675.88;;;18.99;47.37
64551;BME280;50945;44.472;-123.352;2023-07-31T04:15:04;100679.59;;;18.93;47.60
64551;BME280;50945;44.472;-123.352;2023-07-31T04:17:30;100677.13;;;18.85;47.92
64551;BME280;50945;44.472;-123.352;2023-07-31T04:19:56;100674.44;;;18.78;48.09
64551;BME280;50945;44.472;-123.352;2023-07-31T04:22:23;100666.81;;;18.73;48.20
64551;BME280;50945;44.472;-123.352;2023-07-31T04:24:49;100674.72;;;18.70;48.24
64551;BME280;50945;44.472;-123.352;2023-07-31T04:27:15;100675.66;;;18.64;48.54
64551;BME280;50945;44.472;-123.352;2023-07-31T04:29:41;100678.88;;;18.60;48.64
64551;BME280;50945;44.472;-123.352;2023-07-31T04:32:08;100666.56;;;18.56;48.79
64551;BME280;50945;44.472;-123.352;2023-07-31T04:34:35;100674.75;;;18.51;48.94
64551;BME280;50945;44.472;-123.352;2023-07-31T04:37:02;100675.41;;;18.47;49.05
64551;BME280;50945;44.472;-123.352;2023-07-31T04:39:28;100663.34;;;18.41;49.12
64551;BME280;50945;44.472;-123.352;2023-07-31T04:41:54;100660.19;;;18.37;49.30
64551;BME280;50945;44.472;-123.352;2023-07-31T04:44:20;100669.16;;;18.33;49.43
64551;BME280;50945;44.472;-123.352;2023-07-31T04:46:46;100668.16;;;18.27;49.60
64551;BME280;50945;44.472;-123.352;2023-07-31T04:49:13;100662.25;;;18.23;49.73
64551;BME280;50945;44.472;-123.352;2023-07-31T04:51:39;100666.53;;;18.19;49.83
64551;BME280;50945;44.472;-123.352;2023-07-31T04:54:05;100669.97;;;18.15;49.88
64551;BME280;50945;44.472;-123.352;2023-07-31T04:56:31;100663.22;;;18.11;50.03
64551;BME280;50945;44.472;-123.352;2023-07-31T04:58:57;100665.38;;;18.09;50.12
64551;BME280;50945;44.472;-123.352;2023-07-31T05:01:23;100667.75;;;18.05;49.99
64551;BME280;50945;44.472;-123.352;2023-07-31T05:03:49;100664.59;;;18.01;50.15
64551;BME280;50945;44.472;-123.352;2023-07-31T05:06:16;100672.25;;;17.99;50.23
64551;BME280;50945;44.472;-123.352;2023-07-31T05:08:42;100661.44;;;17.98;50.19
64551;BME280;50945;44.472;-123.352;2023-07-31T05:11:08;100674.84;;;17.94;50.34
64551;BME280;50945;44.472;-123.352;2023-07-31T05:13:34;100675.09;;;17.93;50.37
64551;BME280;50945;44.472;-123.352;2023-07-31T05:16:03;100669.38;;;17.88;51.58
64551;BME280;50945;44.472;-123.352;2023-07-31T05:18:29;100670.44;;;17.86;50.33
64551;BME280;50945;44.472;-123.352;2023-07-31T05:20:55;100676.16;;;17.85;50.66
64551;BME280;50945;44.472;-123.352;2023-07-31T05:23:21;100673.22;;;17.80;50.56
64551;BME280;50945;44.472;-123.352;2023-07-31T05:25:48;100676.47;;;17.77;50.92
64551;BME280;50945;44.472;-123.352;2023-07-31T05:28:14;100674.13;;;17.74;51.02
64551;BME280;50945;44.472;-123.352;2023-07-31T05:30:40;100675.66;;;17.70;51.04
64551;BME280;50945;44.472;-123.352;2023-07-31T05:33:06;100668.44;;;17.68;51.34
64551;BME280;50945;44.472;-123.352;2023-07-31T05:35:32;100678.44;;;17.70;51.22
64551;BME280;50945;44.472;-123.352;2023-07-31T05:37:58;100683.31;;;17.67;51.52
64551;BME280;50945;44.472;-123.352;2023-07-31T05:40:24;100681.84;;;17.65;51.21
64551;BME280;50945;44.472;-123.352;2023-07-31T05:42:50;100682.75;;;17.59;51.48
64551;BME280;50945;44.472;-123.352;2023-07-31T05:45:17;100677.06;;;17.54;51.35
64551;BME280;50945;44.472;-123.352;2023-07-31T05:47:43;100679.16;;;17.52;51.84
64551;BME280;50945;44.472;-123.352;2023-07-31T05:50:09;100695.75;;;17.52;51.95
64551;BME280;50945;44.472;-123.352;2023-07-31T05:52:35;100689.81;;;17.48;51.77
64551;BME280;50945;44.472;-123.352;2023-07-31T05:55:01;100695.41;;;17.41;52.09
64551;BME280;50945;44.472;-123.352;2023-07-31T05:57:30;100699.03;;;17.35;52.25
64551;BME280;50945;44.472;-123.352;2023-07-31T05:59:57;100694.19;;;17.31;52.57
64551;BME280;50945;44.472;-123.352;2023-07-31T06:02:23;100693.13;;;17.25;52.52
64551;BME280;50945;44.472;-123.352;2023-07-31T06:04:49;100693.81;;;17.20;52.81
64551;BME280;50945;44.472;-123.352;2023-07-31T06:07:15;100692.78;;;17.15;52.86
64551;BME280;50945;44.472;-123.352;2023-07-31T06:09:41;100695.97;;;17.12;52.79
64551;BME280;50945;44.472;-123.352;2023-07-31T06:12:07;100691.75;;;17.09;53.60
64551;BME280;50945;44.472;-123.352;2023-07-31T06:14:34;100691.56;;;17.04;53.62
64551;BME280;50945;44.472;-123.352;2023-07-31T06:17:00;100687.31;;;17.01;53.67
64551;BME280;50945;44.472;-123.352;2023-07-31T06:19:26;100690.50;;;16.98;53.53
64551;BME280;50945;44.472;-123.352;2023-07-31T06:21:52;100695.63;;;16.95;53.85
64551;BME280;50945;44.472;-123.352;2023-07-31T06:24:19;100699.91;;;16.90;54.15
64551;BME280;50945;44.472;-123.352;2023-07-31T06:26:46;100699.47;;;16.87;54.01
64551;BME280;50945;44.472;-123.352;2023-07-31T06:29:12;100700.97;;;16.83;54.47
64551;BME280;50945;44.472;-123.352;2023-07-31T06:31:38;100705.19;;;16.79;54.77
64551;BME280;50945;44.472;-123.352;2023-07-31T06:34:04;100717.31;;;16.78;54.57
64551;BME280;50945;44.472;-123.352;2023-07-31T06:36:30;100709.47;;;16.75;54.93
64551;BME280;50945;44.472;-123.352;2023-07-31T06:38:57;100712.66;;;16.71;54.93
64551;BME280;50945;44.472;-123.352;2023-07-31T06:41:23;100713.53;;;16.65;54.91
64551;BME280;50945;44.472;-123.352;2023-07-31T06:43:49;100720.56;;;16.61;54.86
64551;BME280;50945;44.472;-123.352;2023-07-31T06:46:15;100719.06;;;16.59;55.46
64551;BME280;50945;44.472;-123.352;2023-07-31T06:48:41;100713.34;;;16.53;55.08
64551;BME280;50945;44.472;-123.352;2023-07-31T06:51:07;100713.56;;;16.52;55.34
64551;BME280;50945;44.472;-123.352;2023-07-31T06:53:33;100718.91;;;16.47;55.38
64551;BME280;50945;44.472;-123.352;2023-07-31T06:55:59;100721.44;;;16.42;55.52
64551;BME280;50945;44.472;-123.352;2023-07-31T06:58:26;100720.78;;;16.40;55.36
64551;BME280;50945;44.472;-123.352;2023-07-31T07:00:52;100715.28;;;16.40;55.42
64551;BME280;50945;44.472;-123.352;2023-07-31T07:03:19;100713.81;;;16.37;55.11
64551;BME280;50945;44.472;-123.352;2023-07-31T07:05:46;100714.00;;;16.35;55.65
64551;BME280;50945;44.472;-123.352;2023-07-31T07:08:12;100706.41;;;16.31;57.01
64551;BME280;50945;44.472;-123.352;2023-07-31T07:10:38;100712.13;;;16.29;55.22
64551;BME280;50945;44.472;-123.352;2023-07-31T07:13:04;100717.00;;;16.27;56.04
64551;BME280;50945;44.472;-123.352;2023-07-31T07:15:30;100717.00;;;16.27;56.13
64551;BME280;50945;44.472;-123.352;2023-07-31T07:17:56;100715.09;;;16.28;55.54
64551;BME280;50945;44.472;-123.352;2023-07-31T07:20:22;100712.34;;;16.28;55.86
64551;BME280;50945;44.472;-123.352;2023-07-31T07:22:49;100713.84;;;16.24;55.83
64551;BME280;50945;44.472;-123.352;2023-07-31T07:25:15;100711.91;;;16.18;56.07
64551;BME280;50945;44.472;-123.352;2023-07-31T07:27:41;100713.41;;;16.13;56.22
64551;BME280;50945;44.472;-123.352;2023-07-31T07:30:08;100713.81;;;16.10;55.91
64551;BME280;50945;44.472;-123.352;2023-07-31T07:32:35;100712.34;;;16.08;56.06
64551;BME280;50945;44.472;-123.352;2023-07-31T07:35:01;100707.66;;;16.02;56.12
64551;BME280;50945;44.472;-123.352;2023-07-31T07:37:27;100710.22;;;15.96;56.29
64551;BME280;50945;44.472;-123.352;2023-07-31T07:39:53;100707.88;;;15.93;56.93
64551;BME280;50945;44.472;-123.352;2023-07-31T07:42:19;100710.19;;;15.90;56.52
64551;BME280;50945;44.472;-123.352;2023-07-31T07:44:46;100714.44;;;15.86;56.89
64551;BME280;50945;44.472;-123.352;2023-07-31T07:47:13;100717.63;;;15.83;57.21
64551;BME280;50945;44.472;-123.352;2023-07-31T07:49:39;100707.88;;;15.80;57.41
64551;BME280;50945;44.472;-123.352;2023-07-31T07:52:05;100715.50;;;15.78;57.03
64551;BME280;50945;44.472;-123.352;2023-07-31T07:54:31;100714.19;;;15.74;60.07
64551;BME280;50945;44.472;-123.352;2023-07-31T07:56:58;100721.63;;;15.73;57.27
64551;BME280;50945;44.472;-123.352;2023-07-31T07:59:23;100721.19;;;15.70;60.21
64551;BME280;50945;44.472;-123.352;2023-07-31T08:01:50;100722.47;;;15.67;57.34
64551;BME280;50945;44.472;-123.352;2023-07-31T08:04:16;100728.38;;;15.64;57.62
64551;BME280;50945;44.472;-123.352;2023-07-31T08:06:42;100725.00;;;15.62;57.29
64551;BME280;50945;44.472;-123.352;2023-07-31T08:09:08;100726.03;;;15.61;57.63
64551;BME280;50945;44.472;-123.352;2023-07-31T08:11:35;100725.41;;;15.59;58.05
64551;BME280;50945;44.472;-123.352;2023-07-31T08:14:01;100729.88;;;15.60;58.16
64551;BME280;50945;44.472;-123.352;2023-07-31T08:16:28;100726.25;;;15.59;58.00
64551;BME280;50945;44.472;-123.352;2023-07-31T08:18:54;100721.59;;;15.60;57.92
64551;BME280;50945;44.472;-123.352;2023-07-31T08:21:21;100723.50;;;15.59;57.97
64551;BME280;50945;44.472;-123.352;2023-07-31T08:23:47;100720.97;;;15.58;57.99
64551;BME280;50945;44.472;-123.352;2023-07-31T08:26:17;100722.03;;;15.57;58.14
64551;BME280;50945;44.472;-123.352;2023-07-31T08:28:44;100724.97;;;15.55;57.83
64551;BME280;50945;44.472;-123.352;2023-07-31T08:31:11;100728.13;;;15.52;58.57
64551;BME280;50945;44.472;-123.352;2023-07-31T08:33:37;100728.75;;;15.41;63.00
64551;BME280;50945;44.472;-123.352;2023-07-31T08:36:03;100732.34;;;15.35;58.41
64551;BME280;50945;44.472;-123.352;2023-07-31T08:38:29;100731.91;;;15.31;59.00
64551;BME280;50945;44.472;-123.352;2023-07-31T08:40:59;100735.72;;;15.30;58.80
64551;BME280;50945;44.472;-123.352;2023-07-31T08:43:26;100729.56;;;15.28;58.93
64551;BME280;50945;44.472;-123.352;2023-07-31T08:45:52;100733.56;;;15.26;58.62
64551;BME280;50945;44.472;-123.352;2023-07-31T08:48:20;100737.81;;;15.21;59.31
64551;BME280;50945;44.472;-123.352;2023-07-31T08:50:47;100735.66;;;15.17;58.80
64551;BME280;50945;44.472;-123.352;2023-07-31T08:53:13;100734.59;;;15.11;58.96
64551;BME280;50945;44.472;-123.352;2023-07-31T08:55:40;100732.91;;;15.10;59.41
64551;BME280;50945;44.472;-123.352;2023-07-31T08:58:06;100729.47;;;15.08;59.40
64551;BME280;50945;44.472;-123.352;2023-07-31T09:00:34;100738.59;;;15.09;59.21
64551;BME280;50945;44.472;-123.352;2023-07-31T09:03:09;100743.25;;;15.08;59.47
64551;BME280;50945;44.472;-123.352;2023-07-31T09:05:39;100743.47;;;15.07;59.56
64551;BME280;50945;44.472;-123.352;2023-07-31T09:08:08;100746.22;;;15.07;59.76
64551;BME280;50945;44.472;-123.352;2023-07-31T09:10:35;100741.13;;;15.04;59.01
64551;BME280;50945;44.472;-123.352;2023-07-31T09:13:02;100736.03;;;15.00;59.34
64551;BME280;50945;44.472;-123.352;2023-07-31T09:15:29;100736.41;;;14.97;59.83
64551;BME280;50945;44.472;-123.352;2023-07-31T09:18:03;100742.16;;;14.96;60.10
64551;BME280;50945;44.472;-123.352;2023-07-31T09:20:29;100737.06;;;14.93;59.58
64551;BME280;50945;44.472;-123.352;2023-07-31T09:22:56;100731.09;;;14.89;59.69
64551;BME280;50945;44.472;-123.352;2023-07-31T09:25:24;100730.25;;;14.89;59.63
64551;BME280;50945;44.472;-123.352;2023-07-31T09:27:58;100734.91;;;14.88;60.00
64551;BME280;50945;44.472;-123.352;2023-07-31T09:30:25;100735.97;;;14.87;59.87
64551;BME280;50945;44.472;-123.352;2023-07-31T09:33:01;100734.47;;;14.85;60.20
64551;BME280;50945;44.472;-123.352;2023-07-31T09:35:32;100735.72;;;14.82;59.95
64551;BME280;50945;44.472;-123.352;2023-07-31T09:38:01;100733.19;;;14.80;60.06
64551;BME280;50945;44.472;-123.352;2023-07-31T09:40:40;100730.81;;;14.77;61.34
64551;BME280;50945;44.472;-123.352;2023-07-31T09:43:11;100738.44;;;14.75;60.45
64551;BME280;50945;44.472;-123.352;2023-07-31T09:45:41;100735.25;;;14.72;60.45
64551;BME280;50945;44.472;-123.352;2023-07-31T09:48:10;100739.47;;;14.68;60.83
64551;BME280;50945;44.472;-123.352;2023-07-31T09:50:37;100733.50;;;14.64;61.12
64551;BME280;50945;44.472;-123.352;2023-07-31T09:53:06;100728.41;;;14.61;61.37
64551;BME280;50945;44.472;-123.352;2023-07-31T09:55:32;100729.84;;;14.57;61.25
64551;BME280;50945;44.472;-123.352;2023-07-31T09:58:00;100742.09;;;14.54;61.26
64551;BME280;50945;44.472;-123.352;2023-07-31T10:00:30;100738.03;;;14.50;61.61
64551;BME280;50945;44.472;-123.352;2023-07-31T10:02:59;100735.88;;;14.45;61.50
64551;BME280;50945;44.472;-123.352;2023-07-31T10:05:34;100734.59;;;14.41;61.90
64551;BME280;50945;44.472;-123.352;2023-07-31T10:08:01;100737.75;;;14.38;61.54
64551;BME280;50945;44.472;-123.352;2023-07-31T10:10:28;100735.59;;;14.34;61.95
64551;BME280;50945;44.472;-123.352;2023-07-31T10:12:56;100745.28;;;14.30;61.85
64551;BME280;50945;44.472;-123.352;2023-07-31T10:15:23;100744.00;;;14.25;61.90
64551;BME280;50945;44.472;-123.352;2023-07-31T10:17:52;100740.81;;;14.22;62.26
64551;BME280;50945;44.472;-123.352;2023-07-31T10:20:20;100747.75;;;14.18;62.54
64551;BME280;50945;44.472;-123.352;2023-07-31T10:22:47;100748.34;;;14.13;62.37
64551;BME280;50945;44.472;-123.352;2023-07-31T10:25:15;100745.13;;;14.10;62.37
64551;BME280;50945;44.472;-123.352;2023-07-31T10:27:42;100749.34;;;14.05;62.75
64551;BME280;50945;44.472;-123.352;2023-07-31T10:30:12;100747.81;;;14.03;62.52
64551;BME280;50945;44.472;-123.352;2023-07-31T10:32:41;100756.44;;;14.00;62.43
64551;BME280;50945;44.472;-123.352;2023-07-31T10:35:09;100753.06;;;13.98;62.94
64551;BME280;50945;44.472;-123.352;2023-07-31T10:37:41;100746.91;;;13.96;62.64
64551;BME280;50945;44.472;-123.352;2023-07-31T10:40:15;100753.47;;;13.95;62.62
64551;BME280;50945;44.472;-123.352;2023-07-31T10:42:53;100753.88;;;13.92;63.77
64551;BME280;50945;44.472;-123.352;2023-07-31T10:45:30;100751.50;;;13.88;63.06
64551;BME280;50945;44.472;-123.352;2023-07-31T10:48:12;100757.38;;;13.85;62.93
64551;BME280;50945;44.472;-123.352;2023-07-31T10:50:55;100758.00;;;13.81;63.57
64551;BME280;50945;44.472;-123.352;2023-07-31T10:53:32;100750.97;;;13.78;64.18
64551;BME280;50945;44.472;-123.352;2023-07-31T10:56:00;100756.00;;;13.75;63.52
64551;BME280;50945;44.472;-123.352;2023-07-31T10:58:26;100760.19;;;13.71;63.15
64551;BME280;50945;44.472;-123.352;2023-07-31T11:00:57;100751.03;;;13.63;63.08
64551;BME280;50945;44.472;-123.352;2023-07-31T11:03:45;100749.06;;;13.57;65.67
64551;BME280;50945;44.472;-123.352;2023-07-31T11:06:12;100750.50;;;13.53;63.72
64551;BME280;50945;44.472;-123.352;2023-07-31T11:08:43;100753.63;;;13.50;63.54
64551;BME280;50945;44.472;-123.352;2023-07-31T11:11:11;100751.50;;;13.45;63.38
64551;BME280;50945;44.472;-123.352;2023-07-31T11:13:42;100746.56;;;13.41;63.73
64551;BME280;50945;44.472;-123.352;2023-07-31T11:16:09;100749.72;;;13.38;63.75
64551;BME280;50945;44.472;-123.352;2023-07-31T11:18:39;100760.44;;;13.33;63.69
64551;BME280;50945;44.472;-123.352;2023-07-31T11:21:06;100758.22;;;13.28;63.88
64551;BME280;50945;44.472;-123.352;2023-07-31T11:23:33;100757.75;;;13.24;63.79
64551;BME280;50945;44.472;-123.352;2023-07-31T11:26:00;100765.34;;;13.22;64.00
64551;BME280;50945;44.472;-123.352;2023-07-31T11:28:26;100764.88;;;13.19;64.02
64551;BME280;50945;44.472;-123.352;2023-07-31T11:30:52;100767.81;;;13.17;64.01
64551;BME280;50945;44.472;-123.352;2023-07-31T11:33:21;100768.47;;;13.19;64.32
64551;BME280;50945;44.472;-123.352;2023-07-31T11:35:48;100761.06;;;13.20;64.16
64551;BME280;50945;44.472;-123.352;2023-07-31T11:38:33;100770.34;;;13.19;65.95
64551;BME280;50945;44.472;-123.352;2023-07-31T11:41:02;100770.72;;;13.16;64.17
64551;BME280;50945;44.472;-123.352;2023-07-31T11:43:29;100773.00;;;13.12;64.57
64551;BME280;50945;44.472;-123.352;2023-07-31T11:45:57;100779.75;;;13.09;64.40
64551;BME280;50945;44.472;-123.352;2023-07-31T11:48:31;100775.09;;;13.10;64.69
64551;BME280;50945;44.472;-123.352;2023-07-31T11:51:09;100780.97;;;13.07;64.77
64551;BME280;50945;44.472;-123.352;2023-07-31T11:53:44;100771.78;;;13.00;64.81
64551;BME280;50945;44.472;-123.352;2023-07-31T11:56:17;100775.97;;;12.96;65.24
64551;BME280;50945;44.472;-123.352;2023-07-31T11:58:46;100777.19;;;12.93;64.66
64551;BME280;50945;44.472;-123.352;2023-07-31T12:01:14;100778.25;;;12.92;64.61
64551;BME280;50945;44.472;-123.352;2023-07-31T12:03:41;100776.91;;;12.88;64.98
64551;BME280;50945;44.472;-123.352;2023-07-31T12:06:08;100781.06;;;12.84;65.13
64551;BME280;50945;44.472;-123.352;2023-07-31T12:08:36;100768.41;;;12.83;65.02
64551;BME280;50945;44.472;-123.352;2023-07-31T12:11:04;100779.38;;;12.83;65.24
64551;BME280;50945;44.472;-123.352;2023-07-31T12:13:32;100779.38;;;12.83;65.52
64551;BME280;50945;44.472;-123.352;2023-07-31T12:16:00;100784.66;;;12.84;65.09
64551;BME280;50945;44.472;-123.352;2023-07-31T12:18:29;100784.66;;;12.84;65.47
64551;BME280;50945;44.472;-123.352;2023-07-31T12:20:58;100781.06;;;12.84;65.32
64551;BME280;50945;44.472;-123.352;2023-07-31T12:23:31;100785.06;;;12.81;65.70